createdAt,value
2023-03-17T00:02:10.286Z,-2.42
2023-03-17T00:07:18.238Z,-2.52
2023-03-17T00:12:24.854Z,-2.59
2023-03-17T00:17:30.299Z,-2.55
2023-03-17T00:22:35.950Z,-2.43
2023-03-17T00:27:41.448Z,-2.32
2023-03-17T00:32:47.463Z,-2.37
2023-03-17T00:37:55.432Z,-2.46
2023-03-17T00:43:05.258Z,-2.56
2023-03-17T00:48:15.972Z,-2.66
2023-03-17T00:53:22.431Z,-2.74
2023-03-17T00:58:35.380Z,-2.87
2023-03-17T01:03:41.747Z,-3.01
2023-03-17T01:08:47.849Z,-3.11
2023-03-17T01:13:53.834Z,-3.15
2023-03-17T01:18:59.319Z,-3.08
2023-03-17T01:24:05.839Z,-3.02
2023-03-17T01:29:11.422Z,-2.92
2023-03-17T01:34:16.964Z,-2.82
2023-03-17T01:39:22.419Z,-2.88
2023-03-17T01:44:28.327Z,-2.96
2023-03-17T01:49:38.225Z,-3.09
2023-03-17T01:54:48.298Z,-3.25
2023-03-17T01:59:58.383Z,-3.31
2023-03-17T02:05:05.957Z,-3.44
2023-03-17T02:10:13.932Z,-3.51
2023-03-17T02:15:19.835Z,-3.46
2023-03-17T02:21:23.115Z,-3.31
2023-03-17T02:26:31.547Z,-3.04
2023-03-17T02:31:37.321Z,-2.92
2023-03-17T02:36:42.986Z,-2.93
2023-03-17T02:41:48.570Z,-2.98
2023-03-17T02:46:54.179Z,-3.06
2023-03-17T02:51:59.878Z,-3.14
2023-03-17T02:57:08.524Z,-3.27
2023-03-17T03:02:14.339Z,-3.36
2023-03-17T03:07:20.188Z,-3.43
2023-03-17T03:12:26.530Z,-3.33
2023-03-17T03:17:32.119Z,-3.26
2023-03-17T03:22:37.978Z,-3.12
2023-03-17T03:27:43.594Z,-3.09
2023-03-17T03:32:49.685Z,-3.25
2023-03-17T03:37:55.197Z,-3.34
2023-03-17T03:43:07.477Z,-3.44
2023-03-17T03:48:19.269Z,-3.49
2023-03-17T03:53:24.943Z,-3.56
2023-03-17T03:58:30.721Z,-3.60
2023-03-17T04:03:36.833Z,-3.57
2023-03-17T04:08:42.303Z,-3.45
2023-03-17T04:13:47.924Z,-3.29
2023-03-17T04:18:53.638Z,-3.18
2023-03-17T04:23:59.073Z,-3.17
2023-03-17T04:29:04.847Z,-3.23
2023-03-17T04:34:15.240Z,-3.30
2023-03-17T04:39:20.912Z,-3.41
2023-03-17T04:44:26.258Z,-3.51
2023-03-17T04:49:31.902Z,-3.54
2023-03-17T04:54:37.954Z,-3.67
2023-03-17T04:59:43.480Z,-3.74
2023-03-17T05:04:49.019Z,-3.57
2023-03-17T05:09:54.460Z,-3.38
2023-03-17T05:15:00.651Z,-3.16
2023-03-17T05:20:08.502Z,-3.01
2023-03-17T05:25:13.867Z,-2.99
2023-03-17T05:30:19.573Z,-3.02
2023-03-17T05:35:24.964Z,-2.98
2023-03-17T05:40:30.899Z,-2.86
2023-03-17T05:45:37.176Z,-2.68
2023-03-17T05:50:42.803Z,-2.40
2023-03-17T05:55:48.310Z,-2.04
2023-03-17T06:00:53.760Z,-1.65
2023-03-17T06:05:59.202Z,-1.12
2023-03-17T06:11:04.713Z,-0.30
2023-03-17T06:16:10.584Z,1.03
2023-03-17T06:21:16.275Z,2.43
2023-03-17T06:26:21.887Z,3.67
2023-03-17T06:31:27.946Z,3.90
2023-03-17T06:36:38.227Z,4.12
2023-03-17T06:41:49.340Z,4.80
2023-03-17T06:46:55.722Z,7.73
2023-03-17T06:52:01.401Z,9.83
2023-03-17T06:57:07.077Z,9.11
2023-03-17T07:02:13.332Z,8.16
2023-03-17T07:07:20.813Z,7.31
2023-03-17T07:12:27.180Z,6.61
2023-03-17T07:17:33.719Z,6.10
2023-03-17T07:22:39.450Z,7.28
2023-03-17T07:27:45.002Z,11.45
2023-03-17T07:32:50.491Z,14.58
2023-03-17T07:37:55.945Z,16.78
2023-03-17T07:43:01.651Z,18.42
2023-03-17T07:48:08.419Z,19.79
2023-03-17T07:53:14.408Z,20.49
2023-03-17T07:58:20.292Z,21.00
2023-03-17T08:03:26.171Z,21.28
2023-03-17T08:08:32.593Z,21.94
2023-03-17T08:13:38.222Z,22.57
2023-03-17T08:18:43.839Z,23.38
2023-03-17T08:23:49.453Z,23.29
2023-03-17T08:28:54.981Z,22.70
2023-03-17T08:34:02.703Z,22.47
2023-03-17T08:39:09.469Z,22.82
2023-03-17T08:44:15.439Z,21.93
2023-03-17T08:49:21.846Z,20.84
2023-03-17T08:54:27.890Z,20.91
2023-03-17T08:59:33.598Z,20.55
2023-03-17T09:04:40.297Z,21.10
2023-03-17T09:09:46.366Z,21.03
2023-03-17T09:14:51.895Z,21.40
2023-03-17T09:19:57.528Z,21.61
2023-03-17T09:25:03.792Z,22.13
2023-03-17T09:30:13.519Z,22.09
2023-03-17T09:35:19.363Z,22.13
2023-03-17T09:40:35.919Z,22.04
2023-03-17T09:45:43.801Z,21.91
2023-03-17T09:50:57.675Z,21.62
2023-03-17T09:56:12.333Z,21.35
2023-03-17T10:01:18.515Z,21.08
2023-03-17T10:06:36.881Z,20.56
2023-03-17T10:11:46.762Z,20.62
2023-03-17T10:16:58.717Z,20.89
2023-03-17T10:22:14.501Z,20.88
2023-03-17T10:27:21.627Z,20.77
2023-03-17T10:32:41.647Z,20.80
2023-03-17T10:37:48.409Z,20.60
2023-03-17T10:43:07.801Z,20.68
2023-03-17T10:48:20.108Z,20.57
2023-03-17T10:53:29.483Z,20.35
2023-03-17T10:58:50.055Z,19.76
2023-03-17T11:04:02.795Z,19.13
2023-03-17T11:09:10.975Z,18.88
2023-03-17T11:14:18.982Z,18.40
2023-03-17T11:19:43.792Z,17.99
2023-03-17T11:24:59.579Z,17.03
2023-03-17T11:30:22.161Z,16.31
2023-03-17T11:35:44.075Z,15.80
2023-03-17T11:41:21.072Z,15.29
2023-03-17T11:46:34.337Z,15.00
2023-03-17T11:51:53.149Z,14.65
2023-03-17T11:57:01.290Z,14.34
2023-03-17T12:02:21.610Z,14.16
2023-03-17T12:07:37.004Z,14.09
2023-03-17T12:12:49.984Z,13.82
2023-03-17T12:18:02.824Z,13.61
2023-03-17T12:23:16.573Z,13.31
2023-03-17T12:28:27.797Z,13.13
2023-03-17T12:33:40.635Z,12.82
2023-03-17T12:38:50.793Z,12.53
2023-03-17T12:44:05.053Z,12.60
2023-03-17T12:49:33.077Z,12.59
2023-03-17T12:54:40.769Z,12.43
2023-03-17T12:59:49.309Z,12.15
2023-03-17T13:05:04.604Z,11.80
2023-03-17T13:10:19.921Z,11.64
2023-03-17T13:15:50.784Z,11.43
2023-03-17T13:21:12.902Z,11.30
2023-03-17T13:26:22.251Z,11.16
2023-03-17T13:31:36.583Z,11.05
2023-03-17T13:37:01.533Z,10.89
2023-03-17T13:42:20.862Z,10.70
2023-03-17T13:47:35.494Z,10.78
2023-03-17T13:52:46.516Z,10.70
2023-03-17T13:58:16.054Z,10.64
2023-03-17T14:03:29.512Z,10.55
2023-03-17T14:08:37.228Z,10.52
2023-03-17T14:13:53.862Z,10.56
2023-03-17T14:19:11.742Z,10.45
2023-03-17T14:24:22.940Z,10.26
2023-03-17T14:29:29.558Z,10.20
2023-03-17T14:34:42.061Z,10.09
2023-03-17T14:39:59.556Z,10.01
2023-03-17T14:50:26.504Z,9.83
2023-03-17T14:55:43.339Z,9.77
2023-03-17T15:00:57.069Z,9.70
2023-03-17T15:06:21.419Z,9.62
2023-03-17T15:11:35.911Z,9.47
2023-03-17T15:16:45.317Z,9.35
2023-03-17T15:21:51.319Z,9.40
2023-03-17T15:27:06.290Z,9.49
2023-03-17T15:32:15.738Z,9.46
2023-03-17T15:37:23.044Z,9.40
2023-03-17T15:42:34.167Z,9.22
2023-03-17T15:47:41.949Z,9.05
2023-03-17T15:52:47.779Z,8.92
2023-03-17T15:57:55.550Z,8.73
2023-03-17T16:03:06.615Z,8.52
2023-03-17T16:08:14.033Z,8.35
2023-03-17T16:13:21.254Z,8.12
2023-03-17T16:18:34.373Z,7.93
2023-03-17T16:23:39.880Z,7.75
2023-03-17T16:28:47.658Z,7.60
2023-03-17T16:33:54.280Z,7.42
2023-03-17T16:39:00.066Z,7.27
2023-03-17T16:44:07.606Z,7.06
2023-03-17T16:49:15.676Z,6.90
2023-03-17T16:54:20.997Z,6.77
2023-03-17T16:59:31.349Z,6.64
2023-03-17T17:04:38.446Z,6.48
2023-03-17T17:09:43.917Z,6.33
2023-03-17T17:14:49.318Z,6.16
2023-03-17T17:19:54.654Z,6.01
2023-03-17T17:25:00.113Z,5.89
2023-03-17T17:30:08.075Z,5.78
2023-03-17T17:35:14.741Z,5.69
2023-03-17T17:40:22.173Z,5.59
2023-03-17T17:45:27.780Z,5.48
2023-03-17T17:50:34.618Z,5.37
2023-03-17T17:55:41.574Z,5.30
2023-03-17T18:00:47.718Z,5.19
2023-03-17T18:05:54.053Z,5.08
2023-03-17T18:10:59.395Z,4.99
2023-03-17T18:16:09.744Z,4.89
2023-03-17T18:21:15.980Z,4.81
2023-03-17T18:26:22.340Z,4.75
2023-03-17T18:31:34.909Z,4.71
2023-03-17T18:36:41.128Z,4.70
2023-03-17T18:41:48.408Z,4.64
2023-03-17T18:46:54.107Z,4.64
2023-03-17T18:51:59.894Z,4.61
2023-03-17T18:57:05.701Z,4.56
2023-03-17T19:02:11.654Z,4.54
2023-03-17T19:07:18.037Z,4.49
2023-03-17T19:12:23.879Z,4.42
2023-03-17T19:17:29.444Z,4.34
2023-03-17T19:22:35.683Z,4.26
2023-03-17T19:27:41.696Z,4.22
2023-03-17T19:32:47.256Z,4.23
2023-03-17T19:37:52.710Z,4.22
2023-03-17T19:42:59.192Z,4.21
2023-03-17T19:48:05.036Z,4.18
2023-03-17T19:53:10.660Z,4.19
2023-03-17T19:58:16.235Z,4.19
2023-03-17T20:03:23.146Z,4.21
2023-03-17T20:08:29.799Z,4.20
2023-03-17T20:13:36.424Z,4.19
2023-03-17T20:18:41.815Z,4.18
2023-03-17T20:23:47.401Z,4.16
2023-03-17T20:28:53.995Z,4.13
2023-03-17T20:33:59.570Z,4.12
2023-03-17T20:39:05.889Z,4.12
2023-03-17T20:44:12.214Z,4.12
2023-03-17T20:49:17.817Z,4.08
2023-03-17T20:54:23.303Z,4.03
2023-03-17T20:59:29.248Z,3.96
2023-03-17T21:04:34.686Z,3.91
2023-03-17T21:09:41.367Z,3.89
2023-03-17T21:14:50.674Z,3.85
2023-03-17T21:19:57.290Z,3.80
2023-03-17T21:25:03.495Z,3.78
2023-03-17T21:30:12.381Z,3.81
2023-03-17T21:35:18.141Z,3.80
2023-03-17T21:40:26.209Z,3.77
2023-03-17T21:45:31.906Z,3.77
2023-03-17T21:50:38.607Z,3.73
2023-03-17T21:55:45.379Z,3.73
2023-03-17T22:00:51.481Z,3.70
2023-03-17T22:05:58.775Z,3.69
2023-03-17T22:11:08.454Z,3.71
2023-03-17T22:16:15.400Z,3.74
2023-03-17T22:21:21.698Z,3.78
2023-03-17T22:26:28.476Z,3.77
2023-03-17T22:31:35.411Z,3.78
2023-03-17T22:36:41.618Z,3.79
2023-03-17T22:41:47.356Z,3.82
2023-03-17T22:46:52.960Z,3.79
2023-03-17T22:51:58.426Z,3.78
2023-03-17T22:57:05.585Z,3.80
2023-03-17T23:02:11.425Z,3.80
2023-03-17T23:07:17.300Z,3.79
2023-03-17T23:12:24.548Z,3.77
2023-03-17T23:17:29.861Z,3.75
2023-03-17T23:22:35.298Z,3.72
2023-03-17T23:27:40.859Z,3.72
2023-03-17T23:32:47.094Z,3.70
2023-03-17T23:37:52.637Z,3.71
2023-03-17T23:42:58.262Z,3.71
2023-03-17T23:48:03.987Z,3.70
2023-03-17T23:53:09.739Z,3.71
2023-03-17T23:58:15.660Z,3.68
